sensor_id;sensor_type;location;lat;lon;timestamp;temperature;humidity
51996;DHT22;38010;53.264;6.592;2023-04-25T00:01:17;14.50;99.90
51996;DHT22;38010;53.264;6.592;2023-04-25T00:03:44;14.60;99.90
51996;DHT22;38010;53.264;6.592;2023-04-25T00:06:11;14.50;99.90
51996;DHT22;38010;53.264;6.592;2023-04-25T00:08:37;14.60;99.90
51996;DHT22;38010;53.264;6.592;2023-04-25T00:11:03;14.50;99.90
51996;DHT22;38010;53.264;6.592;2023-04-25T00:13:28;14.50;99.90
51996;DHT22;38010;53.264;6.592;2023-04-25T00:15:55;14.50;99.90
51996;DHT22;38010;53.264;6.592;2023-04-25T00:18:22;14.50;99.90
51996;DHT22;38010;53.264;6.592;2023-04-25T00:20:47;14.50;99.90
51996;DHT22;38010;53.264;6.592;2023-04-25T00:23:14;14.50;99.90
51996;DHT22;38010;53.264;6.592;2023-04-25T00:25:47;14.50;99.90
51996;DHT22;38010;53.264;6.592;2023-04-25T00:28:13;14.50;99.90
51996;DHT22;38010;53.264;6.592;2023-04-25T00:30:40;14.50;99.90
51996;DHT22;38010;53.264;6.592;2023-04-25T00:33:06;14.50;99.90
51996;DHT22;38010;53.264;6.592;2023-04-25T00:35:31;14.50;99.90
51996;DHT22;38010;53.264;6.592;2023-04-25T00:37:57;14.50;99.90
51996;DHT22;38010;53.264;6.592;2023-04-25T00:40:23;14.50;99.90
51996;DHT22;38010;53.264;6.592;2023-04-25T00:42:49;14.40;99.90
51996;DHT22;38010;53.264;6.592;2023-04-25T00:45:17;14.50;99.90
51996;DHT22;38010;53.264;6.592;2023-04-25T00:47:43;14.40;99.90
51996;DHT22;38010;53.264;6.592;2023-04-25T00:50:09;14.40;99.90
51996;DHT22;38010;53.264;6.592;2023-04-25T00:52:40;14.40;99.90
51996;DHT22;38010;53.264;6.592;2023-04-25T00:55:07;14.40;99.90
51996;DHT22;38010;53.264;6.592;2023-04-25T00:57:34;14.40;99.90
51996;DHT22;38010;53.264;6.592;2023-04-25T00:59:59;14.40;99.90
51996;DHT22;38010;53.264;6.592;2023-04-25T01:02:26;14.40;99.90
51996;DHT22;38010;53.264;6.592;2023-04-25T01:04:52;14.40;99.90
51996;DHT22;38010;53.264;6.592;2023-04-25T01:07:19;14.40;99.90
51996;DHT22;38010;53.264;6.592;2023-04-25T01:09:46;14.40;99.90
51996;DHT22;38010;53.264;6.592;2023-04-25T01:12:12;14.40;99.90
51996;DHT22;38010;53.264;6.592;2023-04-25T01:14:38;14.40;99.90
51996;DHT22;38010;53.264;6.592;2023-04-25T01:17:04;14.40;99.90
51996;DHT22;38010;53.264;6.592;2023-04-25T01:19:30;14.40;99.90
51996;DHT22;38010;53.264;6.592;2023-04-25T01:21:56;14.40;99.90
51996;DHT22;38010;53.264;6.592;2023-04-25T01:24:22;14.40;99.90
51996;DHT22;38010;53.264;6.592;2023-04-25T01:26:48;14.40;99.90
51996;DHT22;38010;53.264;6.592;2023-04-25T01:29:20;14.40;99.90
51996;DHT22;38010;53.264;6.592;2023-04-25T01:31:46;14.40;99.90
51996;DHT22;38010;53.264;6.592;2023-04-25T01:34:13;14.40;99.90
51996;DHT22;38010;53.264;6.592;2023-04-25T01:36:39;14.30;99.90
51996;DHT22;38010;53.264;6.592;2023-04-25T01:39:05;14.40;99.90
51996;DHT22;38010;53.264;6.592;2023-04-25T01:41:32;14.40;99.90
51996;DHT22;38010;53.264;6.592;2023-04-25T01:43:58;14.40;99.90
51996;DHT22;38010;53.264;6.592;2023-04-25T01:46:23;14.30;99.90
51996;DHT22;38010;53.264;6.592;2023-04-25T01:48:49;14.30;99.90
51996;DHT22;38010;53.264;6.592;2023-04-25T01:51:15;14.30;99.90
51996;DHT22;38010;53.264;6.592;2023-04-25T01:53:42;14.30;99.90
51996;DHT22;38010;53.264;6.592;2023-04-25T01:56:08;14.30;99.90
51996;DHT22;38010;53.264;6.592;2023-04-25T01:58:33;14.30;99.90
51996;DHT22;38010;53.264;6.592;2023-04-25T02:00:59;14.30;99.90
51996;DHT22;38010;53.264;6.592;2023-04-25T02:03:25;14.30;99.90
51996;DHT22;38010;53.264;6.592;2023-04-25T02:05:51;14.30;99.90
51996;DHT22;38010;53.264;6.592;2023-04-25T02:08:17;14.30;99.90
51996;DHT22;38010;53.264;6.592;2023-04-25T02:10:43;14.30;99.90
51996;DHT22;38010;53.264;6.592;2023-04-25T02:13:09;14.30;99.90
51996;DHT22;38010;53.264;6.592;2023-04-25T02:15:35;14.30;99.90
51996;DHT22;38010;53.264;6.592;2023-04-25T02:18:01;14.30;99.90
51996;DHT22;38010;53.264;6.592;2023-04-25T02:20:29;14.30;99.90
51996;DHT22;38010;53.264;6.592;2023-04-25T02:22:56;14.30;99.90
51996;DHT22;38010;53.264;6.592;2023-04-25T02:25:22;14.30;99.90
51996;DHT22;38010;53.264;6.592;2023-04-25T02:27:48;14.30;99.90
51996;DHT22;38010;53.264;6.592;2023-04-25T02:30:14;14.30;99.90
51996;DHT22;38010;53.264;6.592;2023-04-25T02:32:40;14.20;99.90
51996;DHT22;38010;53.264;6.592;2023-04-25T02:35:07;14.20;99.90
51996;DHT22;38010;53.264;6.592;2023-04-25T02:37:34;14.30;99.90
51996;DHT22;38010;53.264;6.592;2023-04-25T02:40:00;14.30;99.90
51996;DHT22;38010;53.264;6.592;2023-04-25T02:42:26;14.30;99.90
51996;DHT22;38010;53.264;6.592;2023-04-25T02:44:52;14.20;99.90
51996;DHT22;38010;53.264;6.592;2023-04-25T02:47:18;14.30;99.90
51996;DHT22;38010;53.264;6.592;2023-04-25T02:49:44;14.30;99.90
51996;DHT22;38010;53.264;6.592;2023-04-25T02:52:10;14.20;99.90
51996;DHT22;38010;53.264;6.592;2023-04-25T02:54:36;14.20;99.90
51996;DHT22;38010;53.264;6.592;2023-04-25T02:57:02;14.20;99.90
51996;DHT22;38010;53.264;6.592;2023-04-25T02:59:28;14.20;99.90
51996;DHT22;38010;53.264;6.592;2023-04-25T03:01:54;14.20;99.90
51996;DHT22;38010;53.264;6.592;2023-04-25T03:04:20;14.20;99.90
51996;DHT22;38010;53.264;6.592;2023-04-25T03:06:46;14.20;99.90
51996;DHT22;38010;53.264;6.592;2023-04-25T03:09:12;14.20;99.90
51996;DHT22;38010;53.264;6.592;2023-04-25T03:11:39;14.20;99.90
51996;DHT22;38010;53.264;6.592;2023-04-25T03:14:04;14.20;99.90
51996;DHT22;38010;53.264;6.592;2023-04-25T03:16:30;14.20;99.90
51996;DHT22;38010;53.264;6.592;2023-04-25T03:18:56;14.20;99.90
51996;DHT22;38010;53.264;6.592;2023-04-25T03:21:22;14.20;99.90
51996;DHT22;38010;53.264;6.592;2023-04-25T03:23:48;14.20;99.90
51996;DHT22;38010;53.264;6.592;2023-04-25T03:26:14;14.20;99.90
51996;DHT22;38010;53.264;6.592;2023-04-25T03:28:40;14.10;99.90
51996;DHT22;38010;53.264;6.592;2023-04-25T03:31:05;14.20;99.90
51996;DHT22;38010;53.264;6.592;2023-04-25T03:33:31;14.20;99.90
51996;DHT22;38010;53.264;6.592;2023-04-25T03:35:57;14.10;99.90
51996;DHT22;38010;53.264;6.592;2023-04-25T03:38:23;14.10;99.90
51996;DHT22;38010;53.264;6.592;2023-04-25T03:40:49;14.10;99.90
51996;DHT22;38010;53.264;6.592;2023-04-25T03:43:16;14.10;99.90
51996;DHT22;38010;53.264;6.592;2023-04-25T03:45:41;14.10;99.90
51996;DHT22;38010;53.264;6.592;2023-04-25T03:48:07;14.10;99.90
51996;DHT22;38010;53.264;6.592;2023-04-25T03:50:33;14.10;99.90
51996;DHT22;38010;53.264;6.592;2023-04-25T03:52:59;14.10;99.90
51996;DHT22;38010;53.264;6.592;2023-04-25T03:55:25;14.10;99.90
51996;DHT22;38010;53.264;6.592;2023-04-25T03:57:50;14.10;99.90
51996;DHT22;38010;53.264;6.592;2023-04-25T04:00:16;14.10;99.90
51996;DHT22;38010;53.264;6.592;2023-04-25T04:02:42;14.10;99.90
51996;DHT22;38010;53.264;6.592;2023-04-25T04:05:08;14.10;99.90
51996;DHT22;38010;53.264;6.592;2023-04-25T04:07:34;14.10;99.90
51996;DHT22;38010;53.264;6.592;2023-04-25T04:10:06;14.00;99.90
51996;DHT22;38010;53.264;6.592;2023-04-25T04:12:32;14.10;99.90
51996;DHT22;38010;53.264;6.592;2023-04-25T04:14:57;14.10;99.90
51996;DHT22;38010;53.264;6.592;2023-04-25T04:17:23;14.00;99.90
51996;DHT22;38010;53.264;6.592;2023-04-25T04:19:49;14.10;99.90
51996;DHT22;38010;53.264;6.592;2023-04-25T04:22:15;14.00;99.90
51996;DHT22;38010;53.264;6.592;2023-04-25T04:24:41;14.00;99.90
51996;DHT22;38010;53.264;6.592;2023-04-25T04:27:09;14.00;99.90
51996;DHT22;38010;53.264;6.592;2023-04-25T04:29:35;14.00;99.90
51996;DHT22;38010;53.264;6.592;2023-04-25T04:32:02;14.00;99.90
51996;DHT22;38010;53.264;6.592;2023-04-25T04:34:28;14.00;99.90
51996;DHT22;38010;53.264;6.592;2023-04-25T04:36:54;14.00;99.90
51996;DHT22;38010;53.264;6.592;2023-04-25T04:39:20;14.00;99.90
51996;DHT22;38010;53.264;6.592;2023-04-25T04:41:46;14.00;99.90
51996;DHT22;38010;53.264;6.592;2023-04-25T04:44:12;14.00;99.90
51996;DHT22;38010;53.264;6.592;2023-04-25T04:46:39;14.00;99.90
51996;DHT22;38010;53.264;6.592;2023-04-25T04:49:06;14.00;99.90
51996;DHT22;38010;53.264;6.592;2023-04-25T04:51:32;14.00;99.90
51996;DHT22;38010;53.264;6.592;2023-04-25T04:53:58;14.00;99.90
51996;DHT22;38010;53.264;6.592;2023-04-25T04:56:28;14.00;99.90
51996;DHT22;38010;53.264;6.592;2023-04-25T04:58:59;14.00;99.90
51996;DHT22;38010;53.264;6.592;2023-04-25T05:01:26;14.00;99.90
51996;DHT22;38010;53.264;6.592;2023-04-25T05:03:52;13.90;99.90
51996;DHT22;38010;53.264;6.592;2023-04-25T05:06:19;13.90;99.90
51996;DHT22;38010;53.264;6.592;2023-04-25T05:08:45;13.90;99.90
51996;DHT22;38010;53.264;6.592;2023-04-25T05:11:10;13.90;99.90
51996;DHT22;38010;53.264;6.592;2023-04-25T05:13:36;13.90;99.90
51996;DHT22;38010;53.264;6.592;2023-04-25T05:16:02;14.00;99.90
51996;DHT22;38010;53.264;6.592;2023-04-25T05:18:29;14.00;99.90
51996;DHT22;38010;53.264;6.592;2023-04-25T05:20:55;13.90;99.90
51996;DHT22;38010;53.264;6.592;2023-04-25T05:23:21;14.00;99.90
51996;DHT22;38010;53.264;6.592;2023-04-25T05:25:46;13.90;99.90
51996;DHT22;38010;53.264;6.592;2023-04-25T05:28:13;14.00;99.90
51996;DHT22;38010;53.264;6.592;2023-04-25T05:30:39;13.90;99.90
51996;DHT22;38010;53.264;6.592;2023-04-25T05:33:05;13.90;99.90
51996;DHT22;38010;53.264;6.592;2023-04-25T05:35:30;14.00;99.90
51996;DHT22;38010;53.264;6.592;2023-04-25T05:37:56;13.90;99.90
51996;DHT22;38010;53.264;6.592;2023-04-25T05:40:22;13.90;99.90
51996;DHT22;38010;53.264;6.592;2023-04-25T05:42:48;13.90;99.90
51996;DHT22;38010;53.264;6.592;2023-04-25T05:45:13;13.90;99.90
51996;DHT22;38010;53.264;6.592;2023-04-25T05:47:39;13.90;99.90
51996;DHT22;38010;53.264;6.592;2023-04-25T05:50:05;14.00;99.90
51996;DHT22;38010;53.264;6.592;2023-04-25T05:52:31;13.90;99.90
51996;DHT22;38010;53.264;6.592;2023-04-25T05:54:57;13.90;99.90
51996;DHT22;38010;53.264;6.592;2023-04-25T05:57:25;14.00;99.90
51996;DHT22;38010;53.264;6.592;2023-04-25T05:59:52;13.90;99.90
51996;DHT22;38010;53.264;6.592;2023-04-25T06:02:20;13.90;99.90
51996;DHT22;38010;53.264;6.592;2023-04-25T06:04:47;14.00;99.90
51996;DHT22;38010;53.264;6.592;2023-04-25T06:07:13;14.00;99.90
51996;DHT22;38010;53.264;6.592;2023-04-25T06:09:39;14.00;99.90
51996;DHT22;38010;53.264;6.592;2023-04-25T06:12:06;14.00;99.90
51996;DHT22;38010;53.264;6.592;2023-04-25T06:14:32;14.00;99.90
51996;DHT22;38010;53.264;6.592;2023-04-25T06:16:57;14.00;99.90
51996;DHT22;38010;53.264;6.592;2023-04-25T06:19:23;14.00;99.90
51996;DHT22;38010;53.264;6.592;2023-04-25T06:21:49;14.00;99.90
51996;DHT22;38010;53.264;6.592;2023-04-25T06:24:15;14.00;99.90
51996;DHT22;38010;53.264;6.592;2023-04-25T06:26:40;14.00;99.90
51996;DHT22;38010;53.264;6.592;2023-04-25T06:29:06;14.00;99.90
51996;DHT22;38010;53.264;6.592;2023-04-25T06:31:32;14.00;99.90
51996;DHT22;38010;53.264;6.592;2023-04-25T06:34:00;14.00;99.90
51996;DHT22;38010;53.264;6.592;2023-04-25T06:36:26;14.00;99.90
51996;DHT22;38010;53.264;6.592;2023-04-25T06:38:53;14.00;99.90
51996;DHT22;38010;53.264;6.592;2023-04-25T06:41:19;14.00;99.90
51996;DHT22;38010;53.264;6.592;2023-04-25T06:43:45;14.00;99.90
51996;DHT22;38010;53.264;6.592;2023-04-25T06:46:11;14.00;99.90
51996;DHT22;38010;53.264;6.592;2023-04-25T06:48:37;14.00;99.90
51996;DHT22;38010;53.264;6.592;2023-04-25T06:51:03;14.10;99.90
51996;DHT22;38010;53.264;6.592;2023-04-25T06:53:28;14.10;99.90
51996;DHT22;38010;53.264;6.592;2023-04-25T06:55:55;14.00;99.90
51996;DHT22;38010;53.264;6.592;2023-04-25T06:58:20;14.10;99.90
51996;DHT22;38010;53.264;6.592;2023-04-25T07:00:46;14.00;99.90
51996;DHT22;38010;53.264;6.592;2023-04-25T07:03:12;14.00;99.90
51996;DHT22;38010;53.264;6.592;2023-04-25T07:05:37;14.10;99.90
51996;DHT22;38010;53.264;6.592;2023-04-25T07:08:03;14.00;99.90
51996;DHT22;38010;53.264;6.592;2023-04-25T07:10:29;14.00;99.90
51996;DHT22;38010;53.264;6.592;2023-04-25T07:12:55;14.00;99.90
51996;DHT22;38010;53.264;6.592;2023-04-25T07:15:21;14.10;99.90
51996;DHT22;38010;53.264;6.592;2023-04-25T07:17:46;14.00;99.90
51996;DHT22;38010;53.264;6.592;2023-04-25T07:20:12;14.10;99.90
51996;DHT22;38010;53.264;6.592;2023-04-25T07:22:38;14.10;99.90
51996;DHT22;38010;53.264;6.592;2023-04-25T07:25:04;14.00;99.90
51996;DHT22;38010;53.264;6.592;2023-04-25T07:27:31;14.10;99.90
51996;DHT22;38010;53.264;6.592;2023-04-25T07:29:57;14.00;99.90
51996;DHT22;38010;53.264;6.592;2023-04-25T07:32:23;14.10;99.90
51996;DHT22;38010;53.264;6.592;2023-04-25T07:34:49;14.10;99.90
51996;DHT22;38010;53.264;6.592;2023-04-25T07:37:15;14.10;99.90
51996;DHT22;38010;53.264;6.592;2023-04-25T07:39:41;14.00;99.90
51996;DHT22;38010;53.264;6.592;2023-04-25T07:42:07;14.10;99.90
51996;DHT22;38010;53.264;6.592;2023-04-25T07:44:34;14.10;99.90
51996;DHT22;38010;53.264;6.592;2023-04-25T07:47:09;14.00;99.90
51996;DHT22;38010;53.264;6.592;2023-04-25T07:49:36;14.00;99.90
51996;DHT22;38010;53.264;6.592;2023-04-25T07:52:03;14.10;99.90
51996;DHT22;38010;53.264;6.592;2023-04-25T07:54:31;14.10;99.90
51996;DHT22;38010;53.264;6.592;2023-04-25T07:56:57;14.10;99.90
51996;DHT22;38010;53.264;6.592;2023-04-25T07:59:22;14.00;99.90
51996;DHT22;38010;53.264;6.592;2023-04-25T08:01:48;14.00;99.90
51996;DHT22;38010;53.264;6.592;2023-04-25T08:04:14;14.00;99.90
51996;DHT22;38010;53.264;6.592;2023-04-25T08:06:40;14.00;99.90
51996;DHT22;38010;53.264;6.592;2023-04-25T08:09:06;14.10;99.90
51996;DHT22;38010;53.264;6.592;2023-04-25T08:11:32;14.10;99.90
51996;DHT22;38010;53.264;6.592;2023-04-25T08:13:57;14.00;99.90
51996;DHT22;38010;53.264;6.592;2023-04-25T08:16:23;14.00;99.90
51996;DHT22;38010;53.264;6.592;2023-04-25T08:18:50;14.10;99.90
51996;DHT22;38010;53.264;6.592;2023-04-25T08:21:16;14.10;99.90
51996;DHT22;38010;53.264;6.592;2023-04-25T08:23:41;14.10;99.90
51996;DHT22;38010;53.264;6.592;2023-04-25T08:26:07;14.10;99.90
51996;DHT22;38010;53.264;6.592;2023-04-25T08:28:33;14.10;99.90
51996;DHT22;38010;53.264;6.592;2023-04-25T08:30:59;14.10;99.90
51996;DHT22;38010;53.264;6.592;2023-04-25T08:33:25;14.10;99.90
51996;DHT22;38010;53.264;6.592;2023-04-25T08:35:51;14.10;99.90
51996;DHT22;38010;53.264;6.592;2023-04-25T08:38:17;14.10;99.90
51996;DHT22;38010;53.264;6.592;2023-04-25T08:40:44;14.10;99.90
51996;DHT22;38010;53.264;6.592;2023-04-25T08:43:13;14.10;99.90
51996;DHT22;38010;53.264;6.592;2023-04-25T08:45:41;14.10;99.90
51996;DHT22;38010;53.264;6.592;2023-04-25T08:48:12;14.10;99.90
51996;DHT22;38010;53.264;6.592;2023-04-25T08:50:49;14.10;99.90
51996;DHT22;38010;53.264;6.592;2023-04-25T08:53:16;14.10;99.90
51996;DHT22;38010;53.264;6.592;2023-04-25T08:55:45;14.10;99.90
51996;DHT22;38010;53.264;6.592;2023-04-25T08:58:12;14.00;99.90
51996;DHT22;38010;53.264;6.592;2023-04-25T09:00:39;14.00;99.90
51996;DHT22;38010;53.264;6.592;2023-04-25T09:03:05;14.10;99.90
51996;DHT22;38010;53.264;6.592;2023-04-25T09:05:34;14.10;99.90
51996;DHT22;38010;53.264;6.592;2023-04-25T09:08:01;14.00;99.90
51996;DHT22;38010;53.264;6.592;2023-04-25T09:10:27;14.10;99.90
51996;DHT22;38010;53.264;6.592;2023-04-25T09:13:07;14.00;99.90
51996;DHT22;38010;53.264;6.592;2023-04-25T09:15:57;14.10;99.90
51996;DHT22;38010;53.264;6.592;2023-04-25T09:20:56;14.10;99.90
51996;DHT22;38010;53.264;6.592;2023-04-25T09:23:23;14.10;99.90
51996;DHT22;38010;53.264;6.592;2023-04-25T09:25:50;14.10;99.90
51996;DHT22;38010;53.264;6.592;2023-04-25T09:28:23;14.10;99.90
51996;DHT22;38010;53.264;6.592;2023-04-25T09:30:55;14.00;99.90
51996;DHT22;38010;53.264;6.592;2023-04-25T09:33:27;14.00;99.90
51996;DHT22;38010;53.264;6.592;2023-04-25T09:35:54;14.10;99.90
51996;DHT22;38010;53.264;6.592;2023-04-25T09:38:22;14.00;99.90
51996;DHT22;38010;53.264;6.592;2023-04-25T09:40:47;14.00;99.90
51996;DHT22;38010;53.264;6.592;2023-04-25T09:43:24;14.10;99.90
51996;DHT22;38010;53.264;6.592;2023-04-25T09:45:51;14.10;99.90
51996;DHT22;38010;53.264;6.592;2023-04-25T09:48:19;14.00;99.90
51996;DHT22;38010;53.264;6.592;2023-04-25T09:51:03;14.00;99.90
51996;DHT22;38010;53.264;6.592;2023-04-25T09:53:29;14.00;99.90
51996;DHT22;38010;53.264;6.592;2023-04-25T09:55:56;14.10;99.90
51996;DHT22;38010;53.264;6.592;2023-04-25T09:58:24;14.00;99.90
51996;DHT22;38010;53.264;6.592;2023-04-25T10:00:53;14.10;99.90
51996;DHT22;38010;53.264;6.592;2023-04-25T10:03:22;14.10;99.90
51996;DHT22;38010;53.264;6.592;2023-04-25T10:05:48;14.10;99.90
51996;DHT22;38010;53.264;6.592;2023-04-25T10:08:15;14.10;99.90
51996;DHT22;38010;53.264;6.592;2023-04-25T10:10:42;14.10;99.90
51996;DHT22;38010;53.264;6.592;2023-04-25T10:13:08;14.10;99.90
51996;DHT22;38010;53.264;6.592;2023-04-25T10:15:35;14.10;99.90
51996;DHT22;38010;53.264;6.592;2023-04-25T10:18:02;14.10;99.90
51996;DHT22;38010;53.264;6.592;2023-04-25T10:20:29;14.10;99.90
51996;DHT22;38010;53.264;6.592;2023-04-25T10:23:03;14.00;99.90
51996;DHT22;38010;53.264;6.592;2023-04-25T10:25:30;14.00;99.90
51996;DHT22;38010;53.264;6.592;2023-04-25T10:27:59;14.00;99.90
51996;DHT22;38010;53.264;6.592;2023-04-25T10:30:25;14.00;99.90
51996;DHT22;38010;53.264;6.592;2023-04-25T10:32:54;14.00;99.90
51996;DHT22;38010;53.264;6.592;2023-04-25T10:35:28;14.00;99.90
51996;DHT22;38010;53.264;6.592;2023-04-25T10:38:11;14.10;99.90
51996;DHT22;38010;53.264;6.592;2023-04-25T10:40:38;14.00;99.90
51996;DHT22;38010;53.264;6.592;2023-04-25T10:51:28;14.10;99.90
51996;DHT22;38010;53.264;6.592;2023-04-25T10:54:02;14.10;99.90
51996;DHT22;38010;53.264;6.592;2023-04-25T10:56:30;14.00;99.90
51996;DHT22;38010;53.264;6.592;2023-04-25T10:59:07;14.00;99.90
51996;DHT22;38010;53.264;6.592;2023-04-25T11:01:40;14.10;99.90
51996;DHT22;38010;53.264;6.592;2023-04-25T11:07:10;14.10;99.90
51996;DHT22;38010;53.264;6.592;2023-04-25T11:09:39;14.10;99.90
51996;DHT22;38010;53.264;6.592;2023-04-25T11:12:08;14.00;99.90
51996;DHT22;38010;53.264;6.592;2023-04-25T11:14:36;14.10;99.90
51996;DHT22;38010;53.264;6.592;2023-04-25T11:17:02;14.00;99.90
51996;DHT22;38010;53.264;6.592;2023-04-25T11:19:29;14.10;99.90
51996;DHT22;38010;53.264;6.592;2023-04-25T11:21:59;14.00;99.90
51996;DHT22;38010;53.264;6.592;2023-04-25T11:24:29;14.10;99.90
51996;DHT22;38010;53.264;6.592;2023-04-25T11:26:56;14.10;99.90
51996;DHT22;38010;53.264;6.592;2023-04-25T11:29:28;14.10;99.90
51996;DHT22;38010;53.264;6.592;2023-04-25T11:31:55;14.10;99.90
51996;DHT22;38010;53.264;6.592;2023-04-25T11:34:26;14.10;99.90
51996;DHT22;38010;53.264;6.592;2023-04-25T11:36:52;14.10;99.90
51996;DHT22;38010;53.264;6.592;2023-04-25T11:39:19;14.10;99.90
51996;DHT22;38010;53.264;6.592;2023-04-25T11:41:45;14.20;99.90
51996;DHT22;38010;53.264;6.592;2023-04-25T11:44:11;14.20;99.90
51996;DHT22;38010;53.264;6.592;2023-04-25T11:46:37;14.20;99.90
51996;DHT22;38010;53.264;6.592;2023-04-25T11:49:03;14.20;99.90
51996;DHT22;38010;53.264;6.592;2023-04-25T11:51:30;14.30;99.90
51996;DHT22;38010;53.264;6.592;2023-04-25T11:54:03;14.20;99.90
51996;DHT22;38010;53.264;6.592;2023-04-25T11:56:28;14.30;99.90
51996;DHT22;38010;53.264;6.592;2023-04-25T11:59:02;14.30;99.90
51996;DHT22;38010;53.264;6.592;2023-04-25T12:01:29;14.20;99.90
51996;DHT22;38010;53.264;6.592;2023-04-25T12:04:09;14.30;99.90
51996;DHT22;38010;53.264;6.592;2023-04-25T12:06:39;14.30;99.90
51996;DHT22;38010;53.264;6.592;2023-04-25T12:09:10;14.30;99.90
51996;DHT22;38010;53.264;6.592;2023-04-25T12:11:44;14.30;99.90
51996;DHT22;38010;53.264;6.592;2023-04-25T12:14:10;14.30;99.90
51996;DHT22;38010;53.264;6.592;2023-04-25T12:16:57;14.30;99.90
51996;DHT22;38010;53.264;6.592;2023-04-25T12:19:23;14.30;99.90
51996;DHT22;38010;53.264;6.592;2023-04-25T12:21:50;14.40;99.90
51996;DHT22;38010;53.264;6.592;2023-04-25T12:24:18;14.40;99.90
51996;DHT22;38010;53.264;6.592;2023-04-25T12:29:26;14.40;99.90
51996;DHT22;38010;53.264;6.592;2023-04-25T12:31:53;14.40;99.90
51996;DHT22;38010;53.264;6.592;2023-04-25T12:34:20;14.40;99.90
51996;DHT22;38010;53.264;6.592;2023-04-25T12:36:46;14.40;99.90
51996;DHT22;38010;53.264;6.592;2023-04-25T12:39:17;14.40;99.90
51996;DHT22;38010;53.264;6.592;2023-04-25T12:41:43;14.40;99.90
51996;DHT22;38010;53.264;6.592;2023-04-25T12:44:10;14.50;99.90
51996;DHT22;38010;53.264;6.592;2023-04-25T12:46:36;14.50;99.90
51996;DHT22;38010;53.264;6.592;2023-04-25T12:49:03;14.50;99.90
51996;DHT22;38010;53.264;6.592;2023-04-25T12:51:29;14.60;99.90
51996;DHT22;38010;53.264;6.592;2023-04-25T12:53:56;14.60;99.90
51996;DHT22;38010;53.264;6.592;2023-04-25T12:56:21;14.60;99.90
51996;DHT22;38010;53.264;6.592;2023-04-25T12:58:48;14.70;99.90
51996;DHT22;38010;53.264;6.592;2023-04-25T13:01:14;14.70;99.90
51996;DHT22;38010;53.264;6.592;2023-04-25T13:03:40;14.70;99.90
51996;DHT22;38010;53.264;6.592;2023-04-25T13:06:09;14.70;99.90
51996;DHT22;38010;53.264;6.592;2023-04-25T13:08:35;14.70;99.90
51996;DHT22;38010;53.264;6.592;2023-04-25T13:11:03;14.80;99.90
51996;DHT22;38010;53.264;6.592;2023-04-25T13:13:29;14.80;99.90
51996;DHT22;38010;53.264;6.592;2023-04-25T13:15:55;14.90;99.90
51996;DHT22;38010;53.264;6.592;2023-04-25T13:18:20;14.90;99.90
51996;DHT22;38010;53.264;6.592;2023-04-25T13:20:46;15.00;99.90
51996;DHT22;38010;53.264;6.592;2023-04-25T13:23:12;15.00;99.90
51996;DHT22;38010;53.264;6.592;2023-04-25T13:25:38;14.90;99.90
51996;DHT22;38010;53.264;6.592;2023-04-25T13:28:03;14.90;99.90
51996;DHT22;38010;53.264;6.592;2023-04-25T13:30:30;15.00;99.90
51996;DHT22;38010;53.264;6.592;2023-04-25T13:32:55;15.00;99.90
51996;DHT22;38010;53.264;6.592;2023-04-25T13:35:23;15.10;99.90
51996;DHT22;38010;53.264;6.592;2023-04-25T13:37:48;15.10;99.90
51996;DHT22;38010;53.264;6.592;2023-04-25T13:40:15;15.30;99.90
51996;DHT22;38010;53.264;6.592;2023-04-25T13:42:41;17.00;99.90
51996;DHT22;38010;53.264;6.592;2023-04-25T13:45:07;16.80;99.90
51996;DHT22;38010;53.264;6.592;2023-04-25T13:47:34;18.10;99.40
51996;DHT22;38010;53.264;6.592;2023-04-25T13:50:00;19.40;98.40
51996;DHT22;38010;53.264;6.592;2023-04-25T13:52:28;21.50;95.70
51996;DHT22;38010;53.264;6.592;2023-04-25T13:54:54;22.50;94.30
51996;DHT22;38010;53.264;6.592;2023-04-25T13:57:20;23.60;91.50
51996;DHT22;38010;53.264;6.592;2023-04-25T13:59:46;25.10;83.10
51996;DHT22;38010;53.264;6.592;2023-04-25T14:02:12;24.60;82.40
51996;DHT22;38010;53.264;6.592;2023-04-25T14:04:38;25.00;79.40
51996;DHT22;38010;53.264;6.592;2023-04-25T14:07:04;24.60;76.50
51996;DHT22;38010;53.264;6.592;2023-04-25T14:09:30;23.30;77.30
51996;DHT22;38010;53.264;6.592;2023-04-25T14:11:56;22.10;78.80
51996;DHT22;38010;53.264;6.592;2023-04-25T14:14:22;21.10;81.10
51996;DHT22;38010;53.264;6.592;2023-04-25T14:16:49;20.20;82.90
51996;DHT22;38010;53.264;6.592;2023-04-25T14:19:16;19.50;85.30
51996;DHT22;38010;53.264;6.592;2023-04-25T14:21:42;19.00;86.60
51996;DHT22;38010;53.264;6.592;2023-04-25T14:24:09;18.60;88.30
51996;DHT22;38010;53.264;6.592;2023-04-25T14:26:36;18.30;88.50
51996;DHT22;38010;53.264;6.592;2023-04-25T14:29:04;18.00;90.70
51996;DHT22;38010;53.264;6.592;2023-04-25T14:31:31;17.70;91.40
51996;DHT22;38010;53.264;6.592;2023-04-25T14:33:56;17.40;92.10
51996;DHT22;38010;53.264;6.592;2023-04-25T14:36:22;17.20;92.20
51996;DHT22;38010;53.264;6.592;2023-04-25T14:38:48;17.00;92.90
51996;DHT22;38010;53.264;6.592;2023-04-25T14:41:14;16.90;91.80
51996;DHT22;38010;53.264;6.592;2023-04-25T14:43:39;16.70;92.20
51996;DHT22;38010;53.264;6.592;2023-04-25T14:46:06;16.60;92.50
51996;DHT22;38010;53.264;6.592;2023-04-25T14:48:33;16.50;93.10
51996;DHT22;38010;53.264;6.592;2023-04-25T14:50:59;16.50;94.10
51996;DHT22;38010;53.264;6.592;2023-04-25T14:53:26;16.50;93.50
51996;DHT22;38010;53.264;6.592;2023-04-25T14:55:52;16.50;93.60
51996;DHT22;38010;53.264;6.592;2023-04-25T14:58:19;16.50;93.80
51996;DHT22;38010;53.264;6.592;2023-04-25T15:00:46;16.40;94.00
51996;DHT22;38010;53.264;6.592;2023-04-25T15:03:12;16.30;94.20
51996;DHT22;38010;53.264;6.592;2023-04-25T15:05:39;16.30;95.10
51996;DHT22;38010;53.264;6.592;2023-04-25T15:08:05;16.40;95.60
51996;DHT22;38010;53.264;6.592;2023-04-25T15:10:31;16.40;95.90
51996;DHT22;38010;53.264;6.592;2023-04-25T15:12:57;16.30;96.30
51996;DHT22;38010;53.264;6.592;2023-04-25T15:15:23;16.20;96.60
51996;DHT22;38010;53.264;6.592;2023-04-25T15:17:49;16.10;97.00
51996;DHT22;38010;53.264;6.592;2023-04-25T15:20:16;16.00;97.20
51996;DHT22;38010;53.264;6.592;2023-04-25T15:22:43;16.00;97.40
51996;DHT22;38010;53.264;6.592;2023-04-25T15:25:11;16.10;97.50
51996;DHT22;38010;53.264;6.592;2023-04-25T15:27:38;16.10;97.70
51996;DHT22;38010;53.264;6.592;2023-04-25T15:30:07;16.10;97.80
51996;DHT22;38010;53.264;6.592;2023-04-25T15:32:34;16.20;97.90
51996;DHT22;38010;53.264;6.592;2023-04-25T15:35:03;16.20;98.00
51996;DHT22;38010;53.264;6.592;2023-04-25T15:37:29;16.30;98.20
51996;DHT22;38010;53.264;6.592;2023-04-25T15:40:03;16.30;98.30
51996;DHT22;38010;53.264;6.592;2023-04-25T15:42:35;16.30;98.40
51996;DHT22;38010;53.264;6.592;2023-04-25T15:45:03;16.30;98.40